sensor_id;sensor_type;location;lat;lon;timestamp;temperature;humidity
28845;DHT22;15976;47.938;7.758;2023-03-14T00:02:14;11.40;97.60
28845;DHT22;15976;47.938;7.758;2023-03-14T00:04:41;11.50;97.60
28845;DHT22;15976;47.938;7.758;2023-03-14T00:07:11;11.50;97.60
28845;DHT22;15976;47.938;7.758;2023-03-14T00:09:38;11.40;97.60
28845;DHT22;15976;47.938;7.758;2023-03-14T00:12:05;11.40;97.30
28845;DHT22;15976;47.938;7.758;2023-03-14T00:14:33;11.30;97.20
28845;DHT22;15976;47.938;7.758;2023-03-14T00:17:00;11.20;97.20
28845;DHT22;15976;47.938;7.758;2023-03-14T00:19:27;11.10;97.20
28845;DHT22;15976;47.938;7.758;2023-03-14T00:21:54;11.10;97.20
28845;DHT22;15976;47.938;7.758;2023-03-14T00:24:21;11.00;97.00
28845;DHT22;15976;47.938;7.758;2023-03-14T00:26:48;10.90;97.10
28845;DHT22;15976;47.938;7.758;2023-03-14T00:29:15;10.90;97.30
28845;DHT22;15976;47.938;7.758;2023-03-14T00:31:44;10.90;97.40
28845;DHT22;15976;47.938;7.758;2023-03-14T00:34:11;11.00;97.30
28845;DHT22;15976;47.938;7.758;2023-03-14T00:36:38;10.90;97.10
28845;DHT22;15976;47.938;7.758;2023-03-14T00:39:05;10.90;97.20
28845;DHT22;15976;47.938;7.758;2023-03-14T00:41:32;10.90;97.10
28845;DHT22;15976;47.938;7.758;2023-03-14T00:43:59;10.90;97.20
28845;DHT22;15976;47.938;7.758;2023-03-14T00:46:26;10.90;97.10
28845;DHT22;15976;47.938;7.758;2023-03-14T00:48:53;10.90;97.00
28845;DHT22;15976;47.938;7.758;2023-03-14T00:51:20;11.00;97.10
28845;DHT22;15976;47.938;7.758;2023-03-14T00:53:47;11.10;97.20
28845;DHT22;15976;47.938;7.758;2023-03-14T00:56:14;11.20;97.40
28845;DHT22;15976;47.938;7.758;2023-03-14T00:58:42;11.30;97.70
28845;DHT22;15976;47.938;7.758;2023-03-14T01:01:15;11.30;97.30
28845;DHT22;15976;47.938;7.758;2023-03-14T01:03:42;11.50;97.10
28845;DHT22;15976;47.938;7.758;2023-03-14T01:06:20;11.50;96.90
28845;DHT22;15976;47.938;7.758;2023-03-14T01:08:47;11.60;96.70
28845;DHT22;15976;47.938;7.758;2023-03-14T01:11:20;11.70;96.50
28845;DHT22;15976;47.938;7.758;2023-03-14T01:13:48;11.70;96.20
28845;DHT22;15976;47.938;7.758;2023-03-14T01:16:17;11.80;96.00
28845;DHT22;15976;47.938;7.758;2023-03-14T01:18:45;11.90;95.80
28845;DHT22;15976;47.938;7.758;2023-03-14T01:21:15;11.90;95.70
28845;DHT22;15976;47.938;7.758;2023-03-14T01:23:43;11.90;94.80
28845;DHT22;15976;47.938;7.758;2023-03-14T01:26:13;12.00;94.60
28845;DHT22;15976;47.938;7.758;2023-03-14T01:28:41;12.00;94.80
28845;DHT22;15976;47.938;7.758;2023-03-14T01:31:10;12.00;94.70
28845;DHT22;15976;47.938;7.758;2023-03-14T01:33:38;12.00;94.50
28845;DHT22;15976;47.938;7.758;2023-03-14T01:36:05;12.00;94.40
28845;DHT22;15976;47.938;7.758;2023-03-14T01:38:35;12.00;94.10
28845;DHT22;15976;47.938;7.758;2023-03-14T01:41:03;11.90;93.60
28845;DHT22;15976;47.938;7.758;2023-03-14T01:43:30;11.90;93.30
28845;DHT22;15976;47.938;7.758;2023-03-14T01:48:47;11.60;93.80
28845;DHT22;15976;47.938;7.758;2023-03-14T01:51:27;11.50;94.10
28845;DHT22;15976;47.938;7.758;2023-03-14T02:00:18;11.40;95.00
28845;DHT22;15976;47.938;7.758;2023-03-14T02:03:12;11.50;95.10
28845;DHT22;15976;47.938;7.758;2023-03-14T02:05:42;11.50;95.20
28845;DHT22;15976;47.938;7.758;2023-03-14T02:08:20;11.60;95.20
28845;DHT22;15976;47.938;7.758;2023-03-14T02:10:51;11.60;95.00
28845;DHT22;15976;47.938;7.758;2023-03-14T02:13:23;11.60;94.90
28845;DHT22;15976;47.938;7.758;2023-03-14T02:16:14;11.70;94.90
28845;DHT22;15976;47.938;7.758;2023-03-14T02:18:55;11.70;94.90
28845;DHT22;15976;47.938;7.758;2023-03-14T02:21:53;11.70;94.80
28845;DHT22;15976;47.938;7.758;2023-03-14T02:24:38;11.80;94.80
28845;DHT22;15976;47.938;7.758;2023-03-14T02:27:15;11.80;94.60
28845;DHT22;15976;47.938;7.758;2023-03-14T02:29:58;11.90;94.60
28845;DHT22;15976;47.938;7.758;2023-03-14T02:32:29;11.90;94.50
28845;DHT22;15976;47.938;7.758;2023-03-14T02:34:59;11.90;94.30
28845;DHT22;15976;47.938;7.758;2023-03-14T02:37:38;12.00;94.00
28845;DHT22;15976;47.938;7.758;2023-03-14T02:40:08;12.00;93.10
28845;DHT22;15976;47.938;7.758;2023-03-14T02:42:37;12.00;92.80
28845;DHT22;15976;47.938;7.758;2023-03-14T02:47:40;12.00;92.40
28845;DHT22;15976;47.938;7.758;2023-03-14T02:50:14;12.00;92.10
28845;DHT22;15976;47.938;7.758;2023-03-14T02:52:42;12.00;92.00
28845;DHT22;15976;47.938;7.758;2023-03-14T02:55:09;12.00;91.90
28845;DHT22;15976;47.938;7.758;2023-03-14T02:57:39;12.00;91.90
28845;DHT22;15976;47.938;7.758;2023-03-14T03:00:07;12.00;91.70
28845;DHT22;15976;47.938;7.758;2023-03-14T03:02:37;12.00;90.90
28845;DHT22;15976;47.938;7.758;2023-03-14T03:05:04;12.00;90.40
28845;DHT22;15976;47.938;7.758;2023-03-14T03:07:31;12.00;90.00
28845;DHT22;15976;47.938;7.758;2023-03-14T03:09:58;12.00;89.10
28845;DHT22;15976;47.938;7.758;2023-03-14T03:12:26;12.10;87.30
28845;DHT22;15976;47.938;7.758;2023-03-14T03:14:52;12.10;85.40
28845;DHT22;15976;47.938;7.758;2023-03-14T03:17:19;12.10;83.10
28845;DHT22;15976;47.938;7.758;2023-03-14T03:19:46;12.10;81.50
28845;DHT22;15976;47.938;7.758;2023-03-14T03:22:13;12.10;80.20
28845;DHT22;15976;47.938;7.758;2023-03-14T03:24:40;12.10;79.30
28845;DHT22;15976;47.938;7.758;2023-03-14T03:27:07;12.20;78.30
28845;DHT22;15976;47.938;7.758;2023-03-14T03:29:34;12.10;77.40
28845;DHT22;15976;47.938;7.758;2023-03-14T03:32:02;12.10;76.90
28845;DHT22;15976;47.938;7.758;2023-03-14T03:34:29;12.20;76.60
28845;DHT22;15976;47.938;7.758;2023-03-14T03:36:57;12.20;76.00
28845;DHT22;15976;47.938;7.758;2023-03-14T03:39:26;12.20;75.40
28845;DHT22;15976;47.938;7.758;2023-03-14T03:41:54;12.20;74.20
28845;DHT22;15976;47.938;7.758;2023-03-14T03:44:22;12.20;73.70
28845;DHT22;15976;47.938;7.758;2023-03-14T03:46:50;12.20;73.20
28845;DHT22;15976;47.938;7.758;2023-03-14T03:49:17;12.20;72.90
28845;DHT22;15976;47.938;7.758;2023-03-14T03:51:44;12.10;72.70
28845;DHT22;15976;47.938;7.758;2023-03-14T03:54:12;12.10;72.70
28845;DHT22;15976;47.938;7.758;2023-03-14T03:56:39;12.10;72.40
28845;DHT22;15976;47.938;7.758;2023-03-14T03:59:06;12.10;71.90
28845;DHT22;15976;47.938;7.758;2023-03-14T04:01:33;12.10;71.10
28845;DHT22;15976;47.938;7.758;2023-03-14T04:04:00;12.10;70.90
28845;DHT22;15976;47.938;7.758;2023-03-14T04:06:28;12.00;71.00
28845;DHT22;15976;47.938;7.758;2023-03-14T04:08:57;12.00;70.90
28845;DHT22;15976;47.938;7.758;2023-03-14T04:11:45;12.10;70.60
28845;DHT22;15976;47.938;7.758;2023-03-14T04:14:18;12.00;70.20
28845;DHT22;15976;47.938;7.758;2023-03-14T04:16:47;12.00;69.70
28845;DHT22;15976;47.938;7.758;2023-03-14T04:19:16;12.10;69.50
28845;DHT22;15976;47.938;7.758;2023-03-14T04:21:45;12.00;69.50
28845;DHT22;15976;47.938;7.758;2023-03-14T04:24:14;12.00;68.90
28845;DHT22;15976;47.938;7.758;2023-03-14T04:26:44;12.00;68.80
28845;DHT22;15976;47.938;7.758;2023-03-14T04:29:11;12.00;68.70
28845;DHT22;15976;47.938;7.758;2023-03-14T04:31:40;12.00;68.50
28845;DHT22;15976;47.938;7.758;2023-03-14T04:34:07;12.00;68.20
28845;DHT22;15976;47.938;7.758;2023-03-14T04:36:39;12.00;68.10
28845;DHT22;15976;47.938;7.758;2023-03-14T04:39:12;12.00;68.00
28845;DHT22;15976;47.938;7.758;2023-03-14T04:41:45;12.00;67.90
28845;DHT22;15976;47.938;7.758;2023-03-14T04:44:13;12.00;67.80
28845;DHT22;15976;47.938;7.758;2023-03-14T04:46:40;12.00;67.80
28845;DHT22;15976;47.938;7.758;2023-03-14T04:49:09;12.00;67.60
28845;DHT22;15976;47.938;7.758;2023-03-14T04:51:37;12.00;67.50
28845;DHT22;15976;47.938;7.758;2023-03-14T04:54:04;12.00;67.40
28845;DHT22;15976;47.938;7.758;2023-03-14T04:56:31;12.00;67.20
28845;DHT22;15976;47.938;7.758;2023-03-14T04:59:01;12.00;67.00
28845;DHT22;15976;47.938;7.758;2023-03-14T05:01:28;12.00;67.10
28845;DHT22;15976;47.938;7.758;2023-03-14T05:04:21;12.00;67.20
28845;DHT22;15976;47.938;7.758;2023-03-14T05:07:21;12.00;67.20
28845;DHT22;15976;47.938;7.758;2023-03-14T05:10:07;12.00;67.10
28845;DHT22;15976;47.938;7.758;2023-03-14T05:12:53;11.90;67.00
28845;DHT22;15976;47.938;7.758;2023-03-14T05:15:46;11.90;67.00
28845;DHT22;15976;47.938;7.758;2023-03-14T05:18:33;11.80;67.20
28845;DHT22;15976;47.938;7.758;2023-03-14T05:21:10;11.90;67.10
28845;DHT22;15976;47.938;7.758;2023-03-14T05:23:55;11.80;66.90
28845;DHT22;15976;47.938;7.758;2023-03-14T05:26:43;11.80;67.00
28845;DHT22;15976;47.938;7.758;2023-03-14T05:29:20;11.80;67.20
28845;DHT22;15976;47.938;7.758;2023-03-14T05:31:58;11.70;67.30
28845;DHT22;15976;47.938;7.758;2023-03-14T05:34:44;11.80;67.20
28845;DHT22;15976;47.938;7.758;2023-03-14T05:37:29;11.80;66.90
28845;DHT22;15976;47.938;7.758;2023-03-14T05:40:16;11.70;66.80
28845;DHT22;15976;47.938;7.758;2023-03-14T05:43:16;11.70;66.40
28845;DHT22;15976;47.938;7.758;2023-03-14T05:46:01;11.70;66.10
28845;DHT22;15976;47.938;7.758;2023-03-14T05:48:42;11.70;66.00
28845;DHT22;15976;47.938;7.758;2023-03-14T05:51:29;11.70;66.00
28845;DHT22;15976;47.938;7.758;2023-03-14T05:54:15;11.70;66.00
28845;DHT22;15976;47.938;7.758;2023-03-14T05:57:04;11.70;66.00
28845;DHT22;15976;47.938;7.758;2023-03-14T05:59:44;11.60;66.00
28845;DHT22;15976;47.938;7.758;2023-03-14T06:02:32;11.60;66.10
28845;DHT22;15976;47.938;7.758;2023-03-14T06:05:07;11.60;66.20
28845;DHT22;15976;47.938;7.758;2023-03-14T06:07:35;11.60;66.30
28845;DHT22;15976;47.938;7.758;2023-03-14T06:10:05;11.60;66.20
28845;DHT22;15976;47.938;7.758;2023-03-14T06:12:32;11.70;66.00
28845;DHT22;15976;47.938;7.758;2023-03-14T06:14:59;11.70;65.70
28845;DHT22;15976;47.938;7.758;2023-03-14T06:17:26;11.70;65.50
28845;DHT22;15976;47.938;7.758;2023-03-14T06:20:01;11.70;65.70
28845;DHT22;15976;47.938;7.758;2023-03-14T06:22:30;11.80;65.80
28845;DHT22;15976;47.938;7.758;2023-03-14T06:24:56;11.80;65.70
28845;DHT22;15976;47.938;7.758;2023-03-14T06:27:25;11.80;65.50
28845;DHT22;15976;47.938;7.758;2023-03-14T06:29:54;11.90;65.30
28845;DHT22;15976;47.938;7.758;2023-03-14T06:32:24;11.90;65.30
28845;DHT22;15976;47.938;7.758;2023-03-14T06:34:53;12.00;65.20
28845;DHT22;15976;47.938;7.758;2023-03-14T06:37:20;12.00;65.00
28845;DHT22;15976;47.938;7.758;2023-03-14T06:39:48;12.10;64.60
28845;DHT22;15976;47.938;7.758;2023-03-14T06:42:31;12.10;64.40
28845;DHT22;15976;47.938;7.758;2023-03-14T06:44:58;12.20;64.00
28845;DHT22;15976;47.938;7.758;2023-03-14T06:47:25;12.30;64.00
28845;DHT22;15976;47.938;7.758;2023-03-14T06:49:53;12.30;63.50
28845;DHT22;15976;47.938;7.758;2023-03-14T06:52:21;12.40;62.80
28845;DHT22;15976;47.938;7.758;2023-03-14T06:54:48;12.50;62.40
28845;DHT22;15976;47.938;7.758;2023-03-14T06:57:16;12.50;62.20
28845;DHT22;15976;47.938;7.758;2023-03-14T06:59:43;12.70;62.20
28845;DHT22;15976;47.938;7.758;2023-03-14T07:02:11;12.70;61.50
28845;DHT22;15976;47.938;7.758;2023-03-14T07:04:41;12.80;60.80
28845;DHT22;15976;47.938;7.758;2023-03-14T07:07:09;12.90;60.60
28845;DHT22;15976;47.938;7.758;2023-03-14T07:09:36;13.00;60.40
28845;DHT22;15976;47.938;7.758;2023-03-14T07:12:04;13.00;59.90
28845;DHT22;15976;47.938;7.758;2023-03-14T07:14:31;13.00;60.00
28845;DHT22;15976;47.938;7.758;2023-03-14T07:16:59;13.10;59.80
28845;DHT22;15976;47.938;7.758;2023-03-14T07:19:26;13.10;59.80
28845;DHT22;15976;47.938;7.758;2023-03-14T07:21:53;13.20;59.80
28845;DHT22;15976;47.938;7.758;2023-03-14T07:24:24;13.30;59.80
28845;DHT22;15976;47.938;7.758;2023-03-14T07:26:50;13.30;60.00
28845;DHT22;15976;47.938;7.758;2023-03-14T07:29:17;13.30;59.30
28845;DHT22;15976;47.938;7.758;2023-03-14T07:31:45;13.30;59.50
28845;DHT22;15976;47.938;7.758;2023-03-14T07:34:16;13.30;59.30
28845;DHT22;15976;47.938;7.758;2023-03-14T07:36:44;13.30;59.20
28845;DHT22;15976;47.938;7.758;2023-03-14T07:39:11;13.40;59.40
28845;DHT22;15976;47.938;7.758;2023-03-14T07:41:59;13.30;59.20
28845;DHT22;15976;47.938;7.758;2023-03-14T07:44:44;13.40;59.20
28845;DHT22;15976;47.938;7.758;2023-03-14T07:47:11;13.30;59.00
28845;DHT22;15976;47.938;7.758;2023-03-14T07:49:38;13.30;59.30
28845;DHT22;15976;47.938;7.758;2023-03-14T07:52:05;13.30;59.30
28845;DHT22;15976;47.938;7.758;2023-03-14T07:54:32;13.30;59.50
28845;DHT22;15976;47.938;7.758;2023-03-14T07:56:59;13.20;59.80
28845;DHT22;15976;47.938;7.758;2023-03-14T07:59:27;13.20;59.90
28845;DHT22;15976;47.938;7.758;2023-03-14T08:01:54;13.20;59.80
28845;DHT22;15976;47.938;7.758;2023-03-14T08:04:21;13.10;59.80
28845;DHT22;15976;47.938;7.758;2023-03-14T08:06:48;13.00;60.10
28845;DHT22;15976;47.938;7.758;2023-03-14T08:09:15;13.10;60.50
28845;DHT22;15976;47.938;7.758;2023-03-14T08:11:42;13.00;60.80
28845;DHT22;15976;47.938;7.758;2023-03-14T08:14:09;13.00;61.10
28845;DHT22;15976;47.938;7.758;2023-03-14T08:16:37;13.00;61.40
28845;DHT22;15976;47.938;7.758;2023-03-14T08:19:04;13.00;61.70
28845;DHT22;15976;47.938;7.758;2023-03-14T08:21:31;13.00;62.00
28845;DHT22;15976;47.938;7.758;2023-03-14T08:23:58;12.90;62.30
28845;DHT22;15976;47.938;7.758;2023-03-14T08:26:25;12.90;62.70
28845;DHT22;15976;47.938;7.758;2023-03-14T08:28:52;12.80;63.20
28845;DHT22;15976;47.938;7.758;2023-03-14T08:31:19;12.90;63.60
28845;DHT22;15976;47.938;7.758;2023-03-14T08:33:46;12.80;63.80
28845;DHT22;15976;47.938;7.758;2023-03-14T08:36:13;12.90;63.90
28845;DHT22;15976;47.938;7.758;2023-03-14T08:38:40;13.00;64.20
28845;DHT22;15976;47.938;7.758;2023-03-14T08:41:09;12.90;64.00
28845;DHT22;15976;47.938;7.758;2023-03-14T08:43:37;13.00;64.00
28845;DHT22;15976;47.938;7.758;2023-03-14T08:46:04;13.00;64.10
28845;DHT22;15976;47.938;7.758;2023-03-14T08:48:32;13.00;64.10
28845;DHT22;15976;47.938;7.758;2023-03-14T08:51:13;13.10;64.00
28845;DHT22;15976;47.938;7.758;2023-03-14T08:53:43;13.10;63.90
28845;DHT22;15976;47.938;7.758;2023-03-14T08:56:10;13.20;63.70
28845;DHT22;15976;47.938;7.758;2023-03-14T08:58:38;13.30;63.20
28845;DHT22;15976;47.938;7.758;2023-03-14T09:01:06;13.50;62.50
28845;DHT22;15976;47.938;7.758;2023-03-14T09:03:33;13.60;62.20
28845;DHT22;15976;47.938;7.758;2023-03-14T09:06:08;13.60;61.80
28845;DHT22;15976;47.938;7.758;2023-03-14T09:08:36;13.70;61.90
28845;DHT22;15976;47.938;7.758;2023-03-14T09:11:07;13.70;61.60
28845;DHT22;15976;47.938;7.758;2023-03-14T09:13:35;13.70;61.60
28845;DHT22;15976;47.938;7.758;2023-03-14T09:16:02;13.70;61.60
28845;DHT22;15976;47.938;7.758;2023-03-14T09:18:29;13.60;61.80
28845;DHT22;15976;47.938;7.758;2023-03-14T09:20:56;13.60;62.00
28845;DHT22;15976;47.938;7.758;2023-03-14T09:23:23;13.60;62.30
28845;DHT22;15976;47.938;7.758;2023-03-14T09:25:55;13.50;62.60
28845;DHT22;15976;47.938;7.758;2023-03-14T09:28:22;13.40;62.60
28845;DHT22;15976;47.938;7.758;2023-03-14T09:30:49;13.30;62.70
28845;DHT22;15976;47.938;7.758;2023-03-14T09:33:16;13.30;61.80
28845;DHT22;15976;47.938;7.758;2023-03-14T09:35:44;13.20;62.00
28845;DHT22;15976;47.938;7.758;2023-03-14T09:38:11;13.10;62.10
28845;DHT22;15976;47.938;7.758;2023-03-14T09:40:40;13.00;62.20
28845;DHT22;15976;47.938;7.758;2023-03-14T09:43:14;13.00;62.30
28845;DHT22;15976;47.938;7.758;2023-03-14T09:45:44;12.90;62.70
28845;DHT22;15976;47.938;7.758;2023-03-14T09:48:20;12.90;62.80
28845;DHT22;15976;47.938;7.758;2023-03-14T09:50:52;12.80;64.00
28845;DHT22;15976;47.938;7.758;2023-03-14T09:54:02;12.90;63.50
28845;DHT22;15976;47.938;7.758;2023-03-14T09:56:27;12.80;63.80
28845;DHT22;15976;47.938;7.758;2023-03-14T09:59:02;12.80;64.10
28845;DHT22;15976;47.938;7.758;2023-03-14T10:01:32;12.70;64.50
28845;DHT22;15976;47.938;7.758;2023-03-14T10:04:13;12.70;64.90
28845;DHT22;15976;47.938;7.758;2023-03-14T10:06:41;12.60;65.80
28845;DHT22;15976;47.938;7.758;2023-03-14T10:09:19;12.50;66.70
28845;DHT22;15976;47.938;7.758;2023-03-14T10:11:55;12.40;67.30
28845;DHT22;15976;47.938;7.758;2023-03-14T10:14:35;12.40;67.60
28845;DHT22;15976;47.938;7.758;2023-03-14T10:17:09;12.40;67.60
28845;DHT22;15976;47.938;7.758;2023-03-14T10:19:37;12.40;67.60
28845;DHT22;15976;47.938;7.758;2023-03-14T10:22:17;12.40;67.30
28845;DHT22;15976;47.938;7.758;2023-03-14T10:24:53;12.40;67.20
28845;DHT22;15976;47.938;7.758;2023-03-14T10:27:32;12.50;67.40
28845;DHT22;15976;47.938;7.758;2023-03-14T10:30:05;12.40;67.40
28845;DHT22;15976;47.938;7.758;2023-03-14T10:32:38;12.50;67.50
28845;DHT22;15976;47.938;7.758;2023-03-14T10:40:34;12.40;68.20
28845;DHT22;15976;47.938;7.758;2023-03-14T10:43:04;12.40;68.40
28845;DHT22;15976;47.938;7.758;2023-03-14T10:45:38;12.30;68.80
28845;DHT22;15976;47.938;7.758;2023-03-14T10:50:54;12.30;69.50
28845;DHT22;15976;47.938;7.758;2023-03-14T10:53:22;12.30;69.70
28845;DHT22;15976;47.938;7.758;2023-03-14T10:55:52;12.40;69.90
28845;DHT22;15976;47.938;7.758;2023-03-14T10:58:28;12.50;69.80
28845;DHT22;15976;47.938;7.758;2023-03-14T11:04:26;12.50;69.50
28845;DHT22;15976;47.938;7.758;2023-03-14T11:07:28;12.40;69.70
28845;DHT22;15976;47.938;7.758;2023-03-14T11:09:58;12.40;69.70
28845;DHT22;15976;47.938;7.758;2023-03-14T11:20:45;12.30;70.90
28845;DHT22;15976;47.938;7.758;2023-03-14T11:23:23;12.20;71.60
28845;DHT22;15976;47.938;7.758;2023-03-14T11:30:54;12.10;74.60
28845;DHT22;15976;47.938;7.758;2023-03-14T11:35:59;12.20;74.90
28845;DHT22;15976;47.938;7.758;2023-03-14T11:38:49;12.20;74.90
28845;DHT22;15976;47.938;7.758;2023-03-14T11:41:30;12.10;73.30
28845;DHT22;15976;47.938;7.758;2023-03-14T11:44:03;11.60;72.20
28845;DHT22;15976;47.938;7.758;2023-03-14T11:46:33;11.30;73.00
28845;DHT22;15976;47.938;7.758;2023-03-14T11:51:59;10.80;72.30
28845;DHT22;15976;47.938;7.758;2023-03-14T11:55:15;10.80;71.40
28845;DHT22;15976;47.938;7.758;2023-03-14T11:57:21;10.70;69.20
28845;DHT22;15976;47.938;7.758;2023-03-14T12:07:41;10.70;64.30
28845;DHT22;15976;47.938;7.758;2023-03-14T12:10:09;10.70;63.30
28845;DHT22;15976;47.938;7.758;2023-03-14T12:12:36;10.80;63.10
28845;DHT22;15976;47.938;7.758;2023-03-14T12:15:05;11.00;63.10
28845;DHT22;15976;47.938;7.758;2023-03-14T12:17:37;11.20;62.60
28845;DHT22;15976;47.938;7.758;2023-03-14T12:22:53;11.50;59.80
28845;DHT22;15976;47.938;7.758;2023-03-14T12:25:23;11.60;59.70
28845;DHT22;15976;47.938;7.758;2023-03-14T12:30:41;11.90;58.40
28845;DHT22;15976;47.938;7.758;2023-03-14T12:35:51;12.60;57.00
28845;DHT22;15976;47.938;7.758;2023-03-14T12:38:51;12.90;56.80
28845;DHT22;15976;47.938;7.758;2023-03-14T12:41:23;13.30;57.00
28845;DHT22;15976;47.938;7.758;2023-03-14T12:43:52;13.80;56.50
28845;DHT22;15976;47.938;7.758;2023-03-14T12:46:26;14.10;55.90
28845;DHT22;15976;47.938;7.758;2023-03-14T12:48:54;14.30;54.80
28845;DHT22;15976;47.938;7.758;2023-03-14T12:51:37;14.20;53.20
28845;DHT22;15976;47.938;7.758;2023-03-14T12:59:57;13.20;52.20
28845;DHT22;15976;47.938;7.758;2023-03-14T13:02:27;12.90;52.90
28845;DHT22;15976;47.938;7.758;2023-03-14T13:10:39;12.50;53.10
28845;DHT22;15976;47.938;7.758;2023-03-14T13:13:23;12.40;54.90
28845;DHT22;15976;47.938;7.758;2023-03-14T13:15:58;12.30;56.70
28845;DHT22;15976;47.938;7.758;2023-03-14T13:18:41;12.50;56.80
28845;DHT22;15976;47.938;7.758;2023-03-14T13:21:21;12.60;57.20
28845;DHT22;15976;47.938;7.758;2023-03-14T13:23:59;12.60;56.80
28845;DHT22;15976;47.938;7.758;2023-03-14T13:26:35;12.60;56.90
28845;DHT22;15976;47.938;7.758;2023-03-14T13:29:22;12.50;57.20
28845;DHT22;15976;47.938;7.758;2023-03-14T13:31:54;12.40;57.10
28845;DHT22;15976;47.938;7.758;2023-03-14T13:34:34;12.40;57.00
28845;DHT22;15976;47.938;7.758;2023-03-14T13:37:01;12.30;56.80
28845;DHT22;15976;47.938;7.758;2023-03-14T13:39:28;12.30;56.90
28845;DHT22;15976;47.938;7.758;2023-03-14T13:42:00;12.20;56.30
28845;DHT22;15976;47.938;7.758;2023-03-14T13:44:39;12.10;55.40
28845;DHT22;15976;47.938;7.758;2023-03-14T13:47:13;12.10;55.20
28845;DHT22;15976;47.938;7.758;2023-03-14T13:49:41;12.20;54.70
28845;DHT22;15976;47.938;7.758;2023-03-14T13:52:29;12.20;54.90
28845;DHT22;15976;47.938;7.758;2023-03-14T13:54:59;12.30;55.00
28845;DHT22;15976;47.938;7.758;2023-03-14T13:57:26;12.30;55.10
28845;DHT22;15976;47.938;7.758;2023-03-14T14:00:05;12.30;54.80
28845;DHT22;15976;47.938;7.758;2023-03-14T14:02:36;12.30;54.70
28845;DHT22;15976;47.938;7.758;2023-03-14T14:05:04;12.20;54.50
28845;DHT22;15976;47.938;7.758;2023-03-14T14:07:32;12.10;54.10
28845;DHT22;15976;47.938;7.758;2023-03-14T14:09:59;12.00;54.50
28845;DHT22;15976;47.938;7.758;2023-03-14T14:12:34;11.90;54.60
28845;DHT22;15976;47.938;7.758;2023-03-14T14:17:41;12.00;54.80
28845;DHT22;15976;47.938;7.758;2023-03-14T14:20:20;12.00;54.60
28845;DHT22;15976;47.938;7.758;2023-03-14T14:22:49;12.00;54.90
28845;DHT22;15976;47.938;7.758;2023-03-14T14:25:17;12.20;54.50
28845;DHT22;15976;47.938;7.758;2023-03-14T14:27:48;12.30;54.50
28845;DHT22;15976;47.938;7.758;2023-03-14T14:32:48;12.40;53.90
28845;DHT22;15976;47.938;7.758;2023-03-14T14:35:33;12.40;53.80
28845;DHT22;15976;47.938;7.758;2023-03-14T14:38:01;12.30;53.80
28845;DHT22;15976;47.938;7.758;2023-03-14T14:40:30;12.40;53.50
28845;DHT22;15976;47.938;7.758;2023-03-14T14:43:04;12.50;53.60
28845;DHT22;15976;47.938;7.758;2023-03-14T14:45:34;12.80;52.40
28845;DHT22;15976;47.938;7.758;2023-03-14T14:50:31;12.90;52.00
28845;DHT22;15976;47.938;7.758;2023-03-14T14:53:00;12.90;51.90
28845;DHT22;15976;47.938;7.758;2023-03-14T14:55:38;13.00;52.40
28845;DHT22;15976;47.938;7.758;2023-03-14T15:00:58;13.10;51.90
28845;DHT22;15976;47.938;7.758;2023-03-14T15:03:28;13.10;51.90
28845;DHT22;15976;47.938;7.758;2023-03-14T15:05:55;13.80;52.10
28845;DHT22;15976;47.938;7.758;2023-03-14T15:08:25;15.30;51.40
28845;DHT22;15976;47.938;7.758;2023-03-14T15:10:53;16.70;48.40
28845;DHT22;15976;47.938;7.758;2023-03-14T15:13:21;17.70;45.40
28845;DHT22;15976;47.938;7.758;2023-03-14T15:15:50;18.50;44.10
28845;DHT22;15976;47.938;7.758;2023-03-14T15:18:24;19.10;42.90
28845;DHT22;15976;47.938;7.758;2023-03-14T15:20:52;18.90;42.50
28845;DHT22;15976;47.938;7.758;2023-03-14T15:23:20;19.30;42.60
28845;DHT22;15976;47.938;7.758;2023-03-14T15:25:48;19.00;42.00
28845;DHT22;15976;47.938;7.758;2023-03-14T15:28:29;18.20;42.00
28845;DHT22;15976;47.938;7.758;2023-03-14T15:30:58;17.10;42.40
28845;DHT22;15976;47.938;7.758;2023-03-14T15:33:26;16.20;44.70
28845;DHT22;15976;47.938;7.758;2023-03-14T15:35:53;16.60;45.40
28845;DHT22;15976;47.938;7.758;2023-03-14T15:38:21;17.80;44.60
28845;DHT22;15976;47.938;7.758;2023-03-14T15:40:51;18.80;42.50
28845;DHT22;15976;47.938;7.758;2023-03-14T15:43:19;19.60;40.90
28845;DHT22;15976;47.938;7.758;2023-03-14T15:45:46;20.00;40.10
28845;DHT22;15976;47.938;7.758;2023-03-14T15:48:16;20.20;39.50
28845;DHT22;15976;47.938;7.758;2023-03-14T15:50:43;20.50;39.80
28845;DHT22;15976;47.938;7.758;2023-03-14T15:53:11;20.90;39.80
28845;DHT22;15976;47.938;7.758;2023-03-14T15:55:38;21.30;39.00
28845;DHT22;15976;47.938;7.758;2023-03-14T15:58:05;21.10;38.90
28845;DHT22;15976;47.938;7.758;2023-03-14T16:00:32;20.40;39.40
28845;DHT22;15976;47.938;7.758;2023-03-14T16:02:59;19.50;40.30
28845;DHT22;15976;47.938;7.758;2023-03-14T16:05:26;18.60;41.50
28845;DHT22;15976;47.938;7.758;2023-03-14T16:07:53;17.80;42.50
28845;DHT22;15976;47.938;7.758;2023-03-14T16:10:20;17.20;43.80
28845;DHT22;15976;47.938;7.758;2023-03-14T16:12:47;16.60;44.50
28845;DHT22;15976;47.938;7.758;2023-03-14T16:15:14;16.10;45.40
28845;DHT22;15976;47.938;7.758;2023-03-14T16:17:41;15.60;46.50
28845;DHT22;15976;47.938;7.758;2023-03-14T16:20:10;15.10;47.30
28845;DHT22;15976;47.938;7.758;2023-03-14T16:22:38;14.50;48.20
28845;DHT22;15976;47.938;7.758;2023-03-14T16:25:06;14.20;50.00
28845;DHT22;15976;47.938;7.758;2023-03-14T16:27:33;14.20;51.60
28845;DHT22;15976;47.938;7.758;2023-03-14T16:30:00;14.50;51.80
28845;DHT22;15976;47.938;7.758;2023-03-14T16:32:27;14.40;51.70
28845;DHT22;15976;47.938;7.758;2023-03-14T16:34:55;14.20;52.00
28845;DHT22;15976;47.938;7.758;2023-03-14T16:37:23;14.00;52.50
28845;DHT22;15976;47.938;7.758;2023-03-14T16:39:50;13.80;52.80
28845;DHT22;15976;47.938;7.758;2023-03-14T16:42:37;13.60;53.20
28845;DHT22;15976;47.938;7.758;2023-03-14T16:45:21;13.30;53.70
28845;DHT22;15976;47.938;7.758;2023-03-14T16:47:48;13.20;54.40
28845;DHT22;15976;47.938;7.758;2023-03-14T16:50:16;13.30;54.70
28845;DHT22;15976;47.938;7.758;2023-03-14T16:52:43;13.50;55.10
28845;DHT22;15976;47.938;7.758;2023-03-14T16:55:12;13.70;54.80
28845;DHT22;15976;47.938;7.758;2023-03-14T16:57:39;13.90;54.40
28845;DHT22;15976;47.938;7.758;2023-03-14T17:00:07;13.90;54.10
28845;DHT22;15976;47.938;7.758;2023-03-14T17:02:37;13.80;54.20
28845;DHT22;15976;47.938;7.758;2023-03-14T17:05:04;13.50;54.50
28845;DHT22;15976;47.938;7.758;2023-03-14T17:07:31;13.20;54.90
28845;DHT22;15976;47.938;7.758;2023-03-14T17:09:58;12.90;55.50
28845;DHT22;15976;47.938;7.758;2023-03-14T17:12:25;12.50;56.30
28845;DHT22;15976;47.938;7.758;2023-03-14T17:14:52;12.20;57.00
28845;DHT22;15976;47.938;7.758;2023-03-14T17:17:19;12.00;57.50